Flight Track Log - Related Links

Times and Time Zones

All times are in EDT time to prevent confusion due to time zone crossing. See the CTL18 flight status page for this flight to view local times or setup timezone preferences in your user account.

Time Position Orientation Groundspeed Altitude Reporting Facility
EDT Latitude Longitude Course Direction KTS MPH feet Rate Location/Type
Wed 08:49:41 PM 42.2622 -83.5181 North 121 139 1,800  Level Cleveland Center
Wed 08:50:42 PM 42.2736 -83.5606 290° West 119 137 3,100 1,082 Climbing Cleveland Center
Wed 08:51:43 PM 42.2533 -83.5428 147° Southeast 126 145 4,000 992 Climbing Cleveland Center
Wed 08:52:43 PM 42.2378 -83.4972 115° Southeast 120 138 5,100 992 Climbing Cleveland Center
Wed 08:53:44 PM 42.2222 -83.4544 116° Southeast 127 146 6,000 492 Climbing Cleveland Center
Wed 08:54:45 PM 42.2047 -83.4003 114° Southeast 172 198 6,100 -49 Climbing Cleveland Center
Wed 08:55:46 PM 42.1789 -83.3458 123° Southeast 179 206 5,900 -344 Descending Cleveland Center
Wed 08:56:47 PM 42.1511 -83.2886 123° Southeast 192 221 5,400 -443 Descending Cleveland Center
Wed 08:57:48 PM 42.1214 -83.2231 121° Southeast 193 222 5,000 -197 Descending Cleveland Center
Wed 08:58:49 PM 42.0764 -83.1878 150° Southeast 181 208 5,000 49 Level Cleveland Center
Wed 08:59:50 PM 42.0567 -83.1281 114° Southeast 181 208 5,100 50 Climbing Cleveland Center
Wed 09:00:50 PM 42.0331 -83.0656 117° Southeast 181 208 5,100 -50 Level Cleveland Center
Wed 09:01:51 PM 42.0094 -83.0061 118° Southeast 176 203 5,000  Descending Cleveland Center
Wed 09:02:52 PM 41.9878 -82.9467 116° Southeast 176 203 5,100 49 Climbing Cleveland Center
Wed 09:03:53 PM 41.9639 -82.8869 118° Southeast 175 201 5,100  Level Cleveland Center
Wed 09:04:53 PM 41.9419 -82.8333 119° Southeast 175 201 5,100 -41 Level Cleveland Center
Wed 09:06:18 PM 41.9103 -82.7483 117° Southeast 175 201 5,000  Descending Cleveland Center
Wed 09:07:19 PM 41.8906 -82.6864 113° Southeast 178 205 5,100 58 Climbing Cleveland Center
Wed 09:08:01 PM 41.8767 -82.6442 114° Southeast 175 201 5,100  Level Cleveland Center
Wed 09:09:02 PM 41.8528 -82.5847 118° Southeast 178 205 5,100  Level Cleveland Center
Wed 09:10:21 PM 41.8250 -82.5114 117° Southeast 174 200 5,100 -45 Level Cleveland Center
Wed 09:11:15 PM 41.8092 -82.4581 112° Southeast 171 197 5,000  Descending Cleveland Center
Wed 09:12:22 PM 41.7831 -82.3958 119° Southeast 170 196 5,100 -295 Climbing Cleveland Center
Wed 09:13:17 PM 41.7650 -82.3397 113° Southeast 184 212 4,400 -574 Descending Cleveland Center
Wed 09:14:17 PM 41.7389 -82.2750 118° Southeast 190 219 4,000 -209 Descending Cleveland Center
Wed 09:15:12 PM 41.7169 -82.2217 119° Southeast 181 208 4,000  Level Cleveland Center
Wed 09:16:18 PM 41.6906 -82.1542 118° Southeast 172 198 4,000  Level Cleveland Center
Wed 09:17:01 PM 41.6767 -82.1178 117° Southeast 173 199 4,000  Level Cleveland Center
Wed 09:18:02 PM 41.6544 -82.0617 118° Southeast 172 198 4,000  Level Cleveland Center
Wed 09:19:03 PM 41.6322 -82.0028 117° Southeast 171 197 4,000 -198 Level Cleveland Center
Wed 09:20:03 PM 41.6100 -81.9467 118° Southeast 174 200 3,600 -645 Descending Cleveland Center
Wed 09:21:04 PM 41.5858 -81.8822 117° Southeast 195 224 2,700 -787 Descending Cleveland Center
Wed 09:22:05 PM 41.5614 -81.8208 118° Southeast 180 207 2,000 -443 Descending Cleveland Center
Wed 09:23:06 PM 41.5453 -81.7706 113° Southeast 147 169 1,800 -157 Descending Cleveland Center
Wed 09:24:00 PM 41.5247 -81.7425 134° Southeast 106 122 1,700 -397 Descending Cleveland Center
Wed 09:25:07 PM 41.5061 -81.7117 129° Southeast 89 102 1,000 -627 Descending Cleveland Center
Wed 09:27:00 PM 41.5175 -81.6833 115° Southeast  Level Estimated

Login

Don't have an account? Register now (free) for customized features, flight alerts, and more!